createdAt,value
2018-10-12T00:00:43.621Z,14.90
2018-10-12T00:03:12.428Z,14.90
2018-10-12T00:05:41.178Z,14.80
2018-10-12T00:08:09.526Z,14.80
2018-10-12T00:10:37.908Z,14.70
2018-10-12T00:13:06.283Z,14.70
2018-10-12T00:15:34.613Z,14.70
2018-10-12T00:18:02.925Z,14.60
2018-10-12T00:20:31.251Z,14.60
2018-10-12T00:22:59.565Z,14.60
2018-10-12T00:25:27.887Z,14.60
2018-10-12T00:27:56.201Z,14.50
2018-10-12T00:30:24.554Z,14.50
2018-10-12T00:32:52.859Z,14.50
2018-10-12T00:35:21.191Z,14.40
2018-10-12T00:37:49.505Z,14.40
2018-10-12T00:40:17.833Z,14.40
2018-10-12T00:42:46.427Z,14.40
2018-10-12T00:45:14.767Z,14.30
2018-10-12T00:47:43.080Z,14.30
2018-10-12T00:50:11.413Z,14.30
2018-10-12T00:52:39.722Z,14.30
2018-10-12T00:55:08.063Z,14.30
2018-10-12T00:57:36.364Z,14.20
2018-10-12T01:00:04.730Z,14.20
2018-10-12T01:02:33.037Z,14.20
2018-10-12T01:05:01.369Z,14.20
2018-10-12T01:07:29.679Z,14.10
2018-10-12T01:09:58.009Z,14.10
2018-10-12T01:12:34.676Z,14.10
2018-10-12T01:15:03.485Z,14.00
2018-10-12T01:17:32.657Z,14.00
2018-10-12T01:20:01.122Z,14.00
2018-10-12T01:22:29.924Z,14.00
2018-10-12T01:24:59.559Z,14.00
2018-10-12T01:27:28.224Z,14.00
2018-10-12T01:29:56.626Z,13.90
2018-10-12T01:32:30.463Z,13.90
2018-10-12T01:34:58.793Z,13.90
2018-10-12T01:37:27.108Z,13.90
2018-10-12T01:39:55.451Z,13.80
2018-10-12T01:42:23.748Z,13.80
2018-10-12T01:44:52.104Z,13.80
2018-10-12T01:47:20.444Z,13.70
2018-10-12T01:49:48.792Z,13.70
2018-10-12T01:52:17.091Z,13.70
2018-10-12T01:54:45.415Z,13.60
2018-10-12T01:57:13.997Z,13.60
2018-10-12T01:59:42.331Z,13.50
2018-10-12T02:02:10.636Z,13.50
2018-10-12T02:04:38.963Z,13.40
2018-10-12T02:07:07.291Z,13.40
2018-10-12T02:09:35.612Z,13.40
2018-10-12T02:12:03.935Z,13.30
2018-10-12T02:14:32.272Z,13.30
2018-10-12T02:17:00.819Z,13.30
2018-10-12T02:19:29.160Z,13.30
2018-10-12T02:21:57.468Z,13.30
2018-10-12T02:24:25.787Z,13.30
2018-10-12T02:26:54.100Z,13.30
2018-10-12T02:29:22.426Z,13.20
2018-10-12T02:31:50.733Z,13.20
2018-10-12T02:34:19.085Z,13.20
2018-10-12T02:36:47.393Z,13.20
2018-10-12T02:39:16.232Z,13.20
2018-10-12T02:41:44.564Z,13.20
2018-10-12T02:44:13.089Z,13.20
2018-10-12T02:46:41.449Z,13.20
2018-10-12T02:49:09.757Z,13.10
2018-10-12T02:51:38.244Z,13.10
2018-10-12T02:54:06.540Z,13.10
2018-10-12T02:56:34.956Z,13.10
2018-10-12T02:59:03.255Z,13.00
2018-10-12T03:01:31.580Z,13.00
2018-10-12T03:03:59.896Z,13.00
2018-10-12T03:06:28.230Z,12.90
2018-10-12T03:08:56.540Z,12.90
2018-10-12T03:11:24.906Z,12.90
2018-10-12T03:13:53.218Z,12.90
2018-10-12T03:16:21.549Z,12.80
2018-10-12T03:18:49.871Z,12.80
2018-10-12T03:21:18.196Z,12.80
2018-10-12T03:23:46.517Z,12.70
2018-10-12T03:26:21.692Z,12.70
2018-10-12T03:28:49.971Z,12.70
2018-10-12T03:31:18.340Z,12.70
2018-10-12T03:33:46.680Z,12.70
2018-10-12T03:36:15.028Z,12.70
2018-10-12T03:38:43.377Z,12.70
2018-10-12T03:41:11.720Z,12.70
2018-10-12T03:43:40.043Z,12.60
2018-10-12T03:46:08.377Z,12.60
2018-10-12T03:48:36.688Z,12.60
2018-10-12T03:51:05.056Z,12.60
2018-10-12T03:53:33.372Z,12.60
2018-10-12T03:56:01.696Z,12.60
2018-10-12T03:58:30.023Z,12.50
2018-10-12T04:00:58.356Z,12.50
2018-10-12T04:03:26.656Z,12.50
2018-10-12T04:05:55.084Z,12.50
2018-10-12T04:08:23.399Z,12.40
2018-10-12T04:10:51.716Z,12.40
2018-10-12T04:13:20.036Z,12.30
2018-10-12T04:15:48.360Z,12.30
2018-10-12T04:18:16.700Z,12.30
2018-10-12T04:20:45.021Z,12.30
2018-10-12T04:23:13.328Z,12.30
2018-10-12T04:25:41.663Z,12.20
2018-10-12T04:28:09.959Z,12.20
2018-10-12T04:30:38.285Z,12.20
2018-10-12T04:33:06.991Z,12.20
2018-10-12T04:35:35.324Z,12.20
2018-10-12T04:38:03.647Z,12.20
2018-10-12T04:41:16.067Z,12.20
2018-10-12T04:43:45.158Z,12.20
2018-10-12T04:46:16.617Z,12.20
2018-10-12T04:48:46.096Z,12.10
2018-10-12T04:51:32.537Z,12.10
2018-10-12T04:54:00.847Z,12.10
2018-10-12T04:56:29.183Z,12.10
2018-10-12T04:58:57.522Z,12.00
2018-10-12T05:01:25.844Z,12.00
2018-10-12T05:03:54.167Z,11.90
2018-10-12T05:06:22.498Z,11.90
2018-10-12T05:08:50.849Z,11.90
2018-10-12T05:11:19.169Z,11.90
2018-10-12T05:13:47.480Z,11.90
2018-10-12T05:16:15.835Z,11.80
2018-10-12T05:18:44.140Z,11.80
2018-10-12T05:21:12.457Z,11.80
2018-10-12T05:23:40.767Z,11.80
2018-10-12T05:26:09.091Z,11.70
2018-10-12T05:28:38.298Z,11.70
2018-10-12T05:31:06.975Z,11.70
2018-10-12T05:33:35.266Z,11.70
2018-10-12T05:36:03.597Z,11.60
2018-10-12T05:38:32.717Z,11.50
2018-10-12T05:41:01.122Z,11.50
2018-10-12T05:43:29.744Z,11.50
2018-10-12T05:45:57.947Z,11.50
2018-10-12T05:48:37.542Z,11.50
2018-10-12T05:51:06.510Z,11.50
2018-10-12T05:53:35.720Z,11.50
2018-10-12T05:56:04.512Z,11.50
2018-10-12T05:58:33.064Z,11.50
2018-10-12T06:01:01.403Z,11.40
2018-10-12T06:03:29.707Z,11.40
2018-10-12T06:05:58.300Z,11.40
2018-10-12T06:08:26.652Z,11.40
2018-10-12T06:10:54.981Z,11.40
2018-10-12T06:13:23.305Z,11.40
2018-10-12T06:15:51.669Z,11.40
2018-10-12T06:18:19.956Z,11.50
2018-10-12T06:20:48.247Z,11.50
2018-10-12T06:23:16.564Z,11.50
2018-10-12T06:25:44.884Z,11.50
2018-10-12T06:28:13.211Z,11.50
2018-10-12T06:30:41.520Z,11.50
2018-10-12T06:33:09.863Z,11.50
2018-10-12T06:35:38.195Z,11.50
2018-10-12T06:38:06.531Z,11.60
2018-10-12T06:40:34.955Z,11.50
2018-10-12T06:43:03.312Z,11.50
2018-10-12T06:45:31.700Z,11.50
2018-10-12T06:48:00.029Z,11.50
2018-10-12T06:50:28.400Z,11.60
2018-10-12T06:52:56.736Z,11.60
2018-10-12T06:55:25.046Z,11.60
2018-10-12T06:57:53.371Z,11.70
2018-10-12T07:00:21.866Z,11.70
2018-10-12T07:02:50.224Z,11.70
2018-10-12T07:05:18.543Z,11.70
2018-10-12T07:07:46.879Z,11.70
2018-10-12T07:10:15.208Z,11.80
2018-10-12T07:12:43.569Z,11.80
2018-10-12T07:15:11.882Z,11.80
2018-10-12T07:17:40.219Z,11.80
2018-10-12T07:20:08.548Z,11.90
2018-10-12T07:22:36.878Z,11.90
2018-10-12T07:25:05.261Z,12.00
2018-10-12T07:27:33.591Z,12.00
2018-10-12T07:30:01.902Z,12.10
2018-10-12T07:32:30.236Z,12.10
2018-10-12T07:34:58.536Z,12.10
2018-10-12T07:37:26.870Z,12.20
2018-10-12T07:39:55.187Z,12.20
2018-10-12T07:42:23.575Z,12.30
2018-10-12T07:44:51.868Z,12.40
2018-10-12T07:47:20.278Z,12.40
2018-10-12T07:49:48.560Z,12.50
2018-10-12T07:52:16.895Z,12.50
2018-10-12T07:54:45.230Z,12.60
2018-10-12T07:57:14.960Z,12.70
2018-10-12T07:59:44.243Z,12.80
2018-10-12T08:02:13.291Z,12.90
2018-10-12T08:04:42.537Z,13.00
2018-10-12T08:07:11.964Z,13.00
2018-10-12T08:09:40.389Z,13.10
2018-10-12T08:12:08.667Z,13.20
2018-10-12T08:14:36.990Z,13.30
2018-10-12T08:17:05.340Z,13.30
2018-10-12T08:19:33.671Z,13.40
2018-10-12T08:22:01.983Z,13.50
2018-10-12T08:24:30.317Z,13.60
2018-10-12T08:26:58.761Z,13.70
2018-10-12T08:29:28.599Z,13.80
2018-10-12T08:31:57.054Z,13.90
2018-10-12T08:34:25.439Z,14.00
2018-10-12T08:36:53.730Z,14.10
2018-10-12T08:39:22.067Z,14.30
2018-10-12T08:41:50.390Z,14.40
2018-10-12T08:44:18.765Z,14.50
2018-10-12T08:46:47.075Z,14.60
2018-10-12T08:49:15.399Z,14.70
2018-10-12T08:51:43.707Z,14.90
2018-10-12T08:54:12.031Z,15.00
2018-10-12T08:56:40.552Z,15.20
2018-10-12T08:59:08.893Z,15.30
2018-10-12T09:01:37.199Z,15.50
2018-10-12T09:04:05.564Z,15.70
2018-10-12T09:06:33.924Z,15.90
2018-10-12T09:09:02.656Z,16.00
2018-10-12T09:11:30.955Z,16.20
2018-10-12T09:13:59.279Z,16.40
2018-10-12T09:16:27.636Z,16.60
2018-10-12T09:18:55.923Z,16.80
2018-10-12T09:21:24.256Z,17.00
2018-10-12T09:23:52.562Z,17.10
2018-10-12T09:26:20.866Z,17.30
2018-10-12T09:28:49.197Z,17.40
2018-10-12T09:31:17.508Z,17.60
2018-10-12T09:33:45.832Z,17.70
2018-10-12T09:36:14.149Z,17.90
2018-10-12T09:38:42.484Z,18.00
2018-10-12T09:41:10.788Z,18.20
2018-10-12T09:43:39.151Z,18.30
2018-10-12T09:46:07.448Z,18.40
2018-10-12T09:48:35.763Z,18.60
2018-10-12T09:51:04.074Z,18.70
2018-10-12T09:53:32.396Z,18.90
2018-10-12T09:56:00.712Z,19.00
2018-10-12T09:58:29.037Z,19.20
2018-10-12T10:01:02.798Z,19.30
2018-10-12T10:03:36.459Z,19.50
2018-10-12T10:06:04.762Z,19.60
2018-10-12T10:08:33.278Z,19.70
2018-10-12T10:11:01.408Z,19.90
2018-10-12T10:13:29.751Z,20.00
2018-10-12T10:15:58.055Z,20.10
2018-10-12T10:18:26.369Z,20.30
2018-10-12T10:20:54.663Z,20.30
2018-10-12T10:23:22.988Z,20.40
2018-10-12T10:25:51.286Z,20.60
2018-10-12T10:28:19.595Z,20.70
2018-10-12T10:30:47.896Z,20.80
2018-10-12T10:33:16.223Z,21.00
2018-10-12T10:35:44.590Z,21.10
2018-10-12T10:38:12.904Z,21.20
2018-10-12T10:40:41.215Z,21.30
2018-10-12T10:43:09.556Z,21.40
2018-10-12T10:45:37.911Z,21.60
2018-10-12T10:48:06.238Z,21.70
2018-10-12T10:50:34.578Z,21.80
2018-10-12T10:53:02.882Z,21.90
2018-10-12T10:55:31.204Z,22.10
2018-10-12T10:57:59.515Z,22.20
2018-10-12T11:00:27.833Z,22.40
2018-10-12T11:02:56.170Z,22.50
2018-10-12T11:05:24.488Z,22.60
2018-10-12T11:07:52.795Z,22.80
2018-10-12T11:10:21.110Z,23.00
2018-10-12T11:12:49.493Z,23.10
2018-10-12T11:15:17.744Z,23.30
2018-10-12T11:17:46.055Z,23.40
2018-10-12T11:20:14.368Z,23.50
2018-10-12T11:22:42.692Z,23.70
2018-10-12T11:25:11.008Z,23.90
2018-10-12T11:27:39.315Z,24.10
2018-10-12T11:30:07.653Z,24.20
2018-10-12T11:32:36.006Z,24.40
2018-10-12T11:35:04.352Z,24.50
2018-10-12T11:37:32.656Z,24.70
2018-10-12T11:40:00.989Z,24.80
2018-10-12T11:42:40.559Z,25.00
2018-10-12T11:45:09.032Z,25.20
2018-10-12T11:47:37.476Z,25.30
2018-10-12T11:50:05.886Z,25.40
2018-10-12T11:52:34.201Z,25.50
2018-10-12T11:55:02.535Z,25.70
2018-10-12T11:57:30.847Z,25.80
2018-10-12T11:59:59.169Z,25.90
2018-10-12T12:02:27.469Z,26.00
2018-10-12T12:04:55.793Z,26.10
2018-10-12T12:07:24.208Z,26.20
2018-10-12T12:09:52.644Z,26.30
2018-10-12T12:12:21.036Z,26.40
2018-10-12T12:14:49.439Z,26.60
2018-10-12T12:17:17.746Z,26.60
2018-10-12T12:19:46.077Z,26.70
2018-10-12T12:22:14.389Z,26.90
2018-10-12T12:24:42.811Z,26.90
2018-10-12T12:27:11.159Z,27.00
2018-10-12T12:29:39.529Z,27.10
2018-10-12T12:32:07.950Z,27.20
2018-10-12T12:34:36.300Z,27.20
2018-10-12T12:37:04.700Z,27.30
2018-10-12T12:39:33.056Z,27.40
2018-10-12T12:42:01.367Z,27.40
2018-10-12T12:44:29.703Z,27.40
2018-10-12T12:46:58.017Z,27.50
2018-10-12T12:49:26.547Z,27.50
2018-10-12T12:51:54.703Z,27.60
2018-10-12T12:54:23.066Z,27.60
2018-10-12T12:56:51.408Z,27.60
2018-10-12T12:59:19.740Z,27.60
2018-10-12T13:01:48.050Z,27.70
2018-10-12T13:04:16.385Z,27.80
2018-10-12T13:06:44.726Z,27.80
2018-10-12T13:09:13.029Z,27.90
2018-10-12T13:11:41.352Z,27.90
2018-10-12T13:14:09.862Z,28.00
2018-10-12T13:16:38.220Z,28.00
2018-10-12T13:19:06.690Z,28.00
2018-10-12T13:21:35.004Z,28.10
2018-10-12T13:24:03.327Z,28.10
2018-10-12T13:26:31.656Z,28.20
2018-10-12T13:28:59.961Z,28.20
2018-10-12T13:31:28.284Z,28.30
2018-10-12T13:33:56.583Z,28.30
2018-10-12T13:36:24.895Z,28.30
2018-10-12T13:38:53.193Z,28.30
2018-10-12T13:41:21.503Z,28.30
2018-10-12T13:43:49.812Z,28.30
2018-10-12T13:46:18.124Z,28.20
2018-10-12T13:48:46.425Z,28.10
2018-10-12T13:51:14.776Z,28.10
2018-10-12T13:53:43.096Z,28.00
2018-10-12T13:56:11.421Z,28.00
2018-10-12T13:58:39.879Z,28.00
2018-10-12T14:01:08.203Z,27.90
2018-10-12T14:03:36.503Z,27.90
2018-10-12T14:06:04.841Z,27.80
2018-10-12T14:08:33.156Z,27.80
2018-10-12T14:11:01.472Z,27.70
2018-10-12T14:13:29.783Z,27.70
2018-10-12T14:15:58.104Z,27.60
2018-10-12T14:18:26.493Z,27.60
2018-10-12T14:20:54.743Z,27.50
2018-10-12T14:23:23.045Z,27.50
2018-10-12T14:25:51.368Z,27.40
2018-10-12T14:28:19.671Z,27.40
2018-10-12T14:30:48.051Z,27.30
2018-10-12T14:33:16.344Z,27.30
2018-10-12T14:35:47.085Z,27.20
2018-10-12T14:38:15.392Z,27.10
2018-10-12T14:40:43.703Z,27.00
2018-10-12T14:43:12.009Z,27.00
2018-10-12T14:45:40.348Z,26.90
2018-10-12T14:48:08.646Z,26.90
2018-10-12T14:50:36.984Z,26.80
2018-10-12T14:53:05.395Z,26.80
2018-10-12T14:55:33.680Z,26.70
2018-10-12T14:58:01.988Z,26.70
2018-10-12T15:00:30.323Z,26.60
2018-10-12T15:02:58.627Z,26.50
2018-10-12T15:05:27.001Z,26.40
2018-10-12T15:07:55.281Z,26.40
2018-10-12T15:10:23.656Z,26.20
2018-10-12T15:12:51.942Z,26.20
2018-10-12T15:15:27.927Z,26.10
2018-10-12T15:17:57.102Z,26.00
2018-10-12T15:20:25.516Z,25.90
2018-10-12T15:22:53.879Z,25.80
2018-10-12T15:25:22.285Z,25.70
2018-10-12T15:27:50.631Z,25.70
2018-10-12T15:30:19.419Z,25.60
2018-10-12T15:32:47.735Z,25.50
2018-10-12T15:35:16.036Z,25.50
2018-10-12T15:37:44.942Z,25.40
2018-10-12T15:40:13.235Z,25.40
2018-10-12T15:42:41.750Z,25.20
2018-10-12T15:45:10.087Z,25.20
2018-10-12T15:47:38.417Z,25.10
2018-10-12T15:50:06.733Z,25.00
2018-10-12T15:52:35.057Z,24.90
2018-10-12T15:55:03.401Z,24.90
2018-10-12T15:57:32.511Z,24.80
2018-10-12T16:00:00.826Z,24.80
2018-10-12T16:02:29.156Z,24.70
2018-10-12T16:04:57.472Z,24.60
2018-10-12T16:07:25.795Z,24.60
2018-10-12T16:09:54.529Z,24.50
2018-10-12T16:12:23.711Z,24.40
2018-10-12T16:14:52.193Z,24.40
2018-10-12T16:17:20.400Z,24.30
2018-10-12T16:19:48.715Z,24.20
2018-10-12T16:22:17.047Z,24.10
2018-10-12T16:24:57.471Z,24.00
2018-10-12T16:27:25.816Z,24.00
2018-10-12T16:29:54.185Z,23.80
2018-10-12T16:32:22.516Z,23.80
2018-10-12T16:34:50.943Z,23.70
2018-10-12T16:37:19.271Z,23.60
2018-10-12T16:39:47.583Z,23.60
2018-10-12T16:42:16.127Z,23.50
2018-10-12T16:44:44.480Z,23.40
2018-10-12T16:47:12.800Z,23.30
2018-10-12T16:49:41.108Z,23.20
2018-10-12T16:52:09.461Z,23.10
2018-10-12T16:54:37.751Z,23.00
2018-10-12T16:57:06.220Z,22.90
2018-10-12T16:59:34.753Z,22.90
2018-10-12T17:02:03.082Z,22.80
2018-10-12T17:04:31.389Z,22.70
2018-10-12T17:06:59.729Z,22.60
2018-10-12T17:09:28.028Z,22.50
2018-10-12T17:11:56.348Z,22.50
2018-10-12T17:14:24.670Z,22.40
2018-10-12T17:16:53.057Z,22.30
2018-10-12T17:19:21.335Z,22.20
2018-10-12T17:21:49.640Z,22.20
2018-10-12T17:24:17.941Z,22.10
2018-10-12T17:26:46.276Z,22.00
2018-10-12T17:29:14.573Z,21.90
2018-10-12T17:31:42.896Z,21.90
2018-10-12T17:34:11.189Z,21.80
2018-10-12T17:36:39.515Z,21.70
2018-10-12T17:39:10.675Z,21.70
2018-10-12T17:41:38.981Z,21.60
2018-10-12T17:44:07.316Z,21.60
2018-10-12T17:46:35.640Z,21.50
2018-10-12T17:49:03.940Z,21.50
2018-10-12T17:51:32.300Z,21.40
2018-10-12T17:54:00.609Z,21.40
2018-10-12T17:56:29.636Z,21.30
2018-10-12T17:58:58.026Z,21.20
2018-10-12T18:01:26.325Z,21.20
2018-10-12T18:03:54.658Z,21.10
2018-10-12T18:06:23.825Z,21.00
2018-10-12T18:08:52.204Z,20.90
2018-10-12T18:11:20.468Z,20.80
2018-10-12T18:13:48.814Z,20.80
2018-10-12T18:16:17.116Z,20.70
2018-10-12T18:18:45.459Z,20.70
2018-10-12T18:21:13.779Z,20.60
2018-10-12T18:23:42.095Z,20.50
2018-10-12T18:26:10.462Z,20.50
2018-10-12T18:28:38.764Z,20.50
2018-10-12T18:31:07.087Z,20.40
2018-10-12T18:33:35.417Z,20.30
2018-10-12T18:36:03.724Z,20.30
2018-10-12T18:38:32.043Z,20.20
2018-10-12T18:41:00.349Z,20.20
2018-10-12T18:43:28.675Z,20.10
2018-10-12T18:45:57.000Z,20.10
2018-10-12T18:48:25.327Z,20.00
2018-10-12T18:50:53.644Z,20.00
2018-10-12T18:53:21.968Z,19.90
2018-10-12T18:55:50.273Z,19.90
2018-10-12T18:58:18.591Z,19.90
2018-10-12T19:00:46.887Z,19.80
2018-10-12T19:03:15.205Z,19.80
2018-10-12T19:05:43.504Z,19.70
2018-10-12T19:08:11.819Z,19.70
2018-10-12T19:10:40.120Z,19.70
2018-10-12T19:13:08.470Z,19.60
2018-10-12T19:15:36.766Z,19.60
2018-10-12T19:18:05.082Z,19.60
2018-10-12T19:20:33.385Z,19.60
2018-10-12T19:23:01.711Z,19.50
2018-10-12T19:25:30.008Z,19.50
2018-10-12T19:27:58.319Z,19.50
2018-10-12T19:30:26.634Z,19.50
2018-10-12T19:32:54.976Z,19.50
2018-10-12T19:35:23.550Z,19.40
2018-10-12T19:37:51.873Z,19.40
2018-10-12T19:40:20.211Z,19.40
2018-10-12T19:42:48.557Z,19.30
2018-10-12T19:45:16.874Z,19.30
2018-10-12T19:47:45.365Z,19.20
2018-10-12T19:50:13.660Z,19.20
2018-10-12T19:52:42.022Z,19.10
2018-10-12T19:55:10.328Z,19.10
2018-10-12T19:57:38.647Z,19.10
2018-10-12T20:00:06.974Z,19.00
2018-10-12T20:02:35.287Z,19.00
2018-10-12T20:05:03.592Z,18.90
2018-10-12T20:07:31.891Z,18.80
2018-10-12T20:10:00.213Z,18.80
2018-10-12T20:12:28.512Z,18.70
2018-10-12T20:14:56.824Z,18.70
2018-10-12T20:17:25.150Z,18.60
2018-10-12T20:19:53.479Z,18.60
2018-10-12T20:22:21.780Z,18.50
2018-10-12T20:24:50.088Z,18.50
2018-10-12T20:27:18.408Z,18.40
2018-10-12T20:29:46.727Z,18.40
2018-10-12T20:32:15.049Z,18.30
2018-10-12T20:34:43.393Z,18.30
2018-10-12T20:37:11.712Z,18.20
2018-10-12T20:39:40.057Z,18.10
2018-10-12T20:42:08.404Z,18.10
2018-10-12T20:44:36.864Z,18.00
2018-10-12T20:47:05.221Z,18.00
2018-10-12T20:49:33.554Z,17.90
2018-10-12T20:52:01.887Z,17.90
2018-10-12T20:54:30.219Z,17.80
2018-10-12T20:56:58.548Z,17.80
2018-10-12T20:59:26.948Z,17.70
2018-10-12T21:01:55.492Z,17.70
2018-10-12T21:04:23.833Z,17.60
2018-10-12T21:06:52.148Z,17.50
2018-10-12T21:09:20.529Z,17.50
2018-10-12T21:11:48.849Z,17.40
2018-10-12T21:14:17.176Z,17.40
2018-10-12T21:16:45.524Z,17.30
2018-10-12T21:19:13.956Z,17.20
2018-10-12T21:21:42.292Z,17.20
2018-10-12T21:24:10.628Z,17.10
2018-10-12T21:26:38.954Z,17.10
2018-10-12T21:29:07.293Z,17.00
2018-10-12T21:31:35.632Z,17.00
2018-10-12T21:34:03.961Z,17.00
2018-10-12T21:36:32.497Z,16.90
2018-10-12T21:39:00.826Z,16.90
2018-10-12T21:41:29.149Z,16.90
2018-10-12T21:43:57.506Z,16.80
2018-10-12T21:46:25.816Z,16.80
2018-10-12T21:48:54.148Z,16.70
2018-10-12T21:51:22.460Z,16.60
2018-10-12T21:53:50.784Z,16.60
2018-10-12T21:56:19.421Z,16.60
2018-10-12T21:58:47.848Z,16.60
2018-10-12T22:01:16.183Z,16.50
2018-10-12T22:03:44.530Z,16.50
2018-10-12T22:06:12.860Z,16.40
2018-10-12T22:08:57.471Z,16.40
2018-10-12T22:11:25.803Z,16.40
2018-10-12T22:13:54.209Z,16.30
2018-10-12T22:16:22.597Z,16.20
2018-10-12T22:18:50.932Z,16.20
2018-10-12T22:21:19.256Z,16.20
2018-10-12T22:23:47.583Z,16.20
2018-10-12T22:26:15.967Z,16.10
2018-10-12T22:28:44.277Z,16.10
2018-10-12T22:31:12.625Z,16.10
2018-10-12T22:33:40.939Z,16.10
2018-10-12T22:36:09.268Z,16.00
2018-10-12T22:38:37.611Z,16.00
2018-10-12T22:41:05.979Z,16.00
2018-10-12T22:43:34.300Z,16.00
2018-10-12T22:46:02.691Z,15.90
2018-10-12T22:48:31.016Z,15.90
2018-10-12T22:50:59.354Z,15.90
2018-10-12T22:53:27.733Z,15.90
2018-10-12T22:55:56.071Z,15.80
2018-10-12T22:58:24.390Z,15.80
2018-10-12T23:00:52.807Z,15.70
2018-10-12T23:03:21.116Z,15.70
2018-10-12T23:05:49.478Z,15.70
2018-10-12T23:08:17.801Z,15.70
2018-10-12T23:10:46.177Z,15.60
2018-10-12T23:13:14.487Z,15.60
2018-10-12T23:15:42.809Z,15.60
2018-10-12T23:18:11.108Z,15.50
2018-10-12T23:20:39.440Z,15.40
2018-10-12T23:23:07.748Z,15.40
2018-10-12T23:25:36.060Z,15.40
2018-10-12T23:28:04.354Z,15.40
2018-10-12T23:30:32.677Z,15.40
2018-10-12T23:33:12.223Z,15.40
2018-10-12T23:35:40.530Z,15.50
2018-10-12T23:38:08.827Z,15.50
2018-10-12T23:40:37.141Z,15.50
2018-10-12T23:43:05.510Z,15.50
2018-10-12T23:45:33.848Z,15.50
2018-10-12T23:48:02.134Z,15.50
2018-10-12T23:50:30.452Z,15.50
2018-10-12T23:52:58.762Z,15.50
2018-10-12T23:55:27.108Z,15.50
2018-10-12T23:57:55.404Z,15.50
